createdAt,value
2022-09-28T00:00:24.402Z,24.65
2022-09-28T00:01:24.458Z,24.65
2022-09-28T00:02:24.598Z,24.65
2022-09-28T00:03:24.400Z,24.55
2022-09-28T00:04:24.401Z,24.65
2022-09-28T00:05:24.401Z,24.65
2022-09-28T00:06:24.432Z,24.55
2022-09-28T00:07:24.402Z,24.55
2022-09-28T00:08:24.402Z,24.56
2022-09-28T00:09:24.400Z,24.65
2022-09-28T00:10:24.404Z,24.74
2022-09-28T00:11:24.400Z,24.74
2022-09-28T00:12:24.401Z,24.65
2022-09-28T00:13:24.401Z,24.74
2022-09-28T00:14:24.401Z,24.66
2022-09-28T00:15:24.401Z,24.45
2022-09-28T00:16:24.528Z,24.74
2022-09-28T00:17:24.402Z,24.45
2022-09-28T00:18:24.405Z,24.65
2022-09-28T00:19:24.401Z,24.55
2022-09-28T00:20:24.400Z,24.55
2022-09-28T00:21:24.402Z,24.35
2022-09-28T00:22:24.422Z,24.65
2022-09-28T00:23:24.401Z,24.35
2022-09-28T00:24:27.716Z,24.35
2022-09-28T00:25:24.402Z,24.45
2022-09-28T00:26:24.401Z,24.45
2022-09-28T00:27:24.402Z,24.35
2022-09-28T00:28:24.401Z,24.35
2022-09-28T00:29:24.406Z,24.26
2022-09-28T00:30:24.400Z,24.16
2022-09-28T00:31:24.446Z,24.26
2022-09-28T00:32:24.401Z,24.16
2022-09-28T00:33:24.403Z,24.16
2022-09-28T00:34:24.400Z,24.16
2022-09-28T00:35:24.402Z,24.16
2022-09-28T00:36:24.402Z,24.26
2022-09-28T00:37:24.406Z,24.16
2022-09-28T00:38:24.425Z,24.16
2022-09-28T00:39:24.402Z,24.06
2022-09-28T00:40:24.429Z,23.77
2022-09-28T00:41:24.402Z,24.45
2022-09-28T00:42:24.401Z,24.16
2022-09-28T00:43:24.404Z,24.35
2022-09-28T00:44:24.418Z,24.35
2022-09-28T00:45:24.433Z,24.35
2022-09-28T00:46:24.400Z,24.35
2022-09-28T00:47:24.403Z,24.45
2022-09-28T00:48:24.400Z,24.35
2022-09-28T00:49:24.403Z,24.35
2022-09-28T00:50:24.400Z,24.35
2022-09-28T00:51:24.402Z,24.35
2022-09-28T00:52:24.403Z,24.45
2022-09-28T00:53:24.403Z,24.45
2022-09-28T00:54:24.425Z,23.96
2022-09-28T00:55:24.411Z,24.06
2022-09-28T00:56:24.402Z,24.16
2022-09-28T00:57:24.406Z,24.06
2022-09-28T00:58:24.402Z,24.26
2022-09-28T00:59:24.421Z,24.16
2022-09-28T01:00:24.410Z,24.26
2022-09-28T01:01:24.479Z,24.16
2022-09-28T01:02:24.450Z,24.26
2022-09-28T01:03:24.403Z,24.16
2022-09-28T01:04:29.197Z,23.88
2022-09-28T01:05:24.404Z,24.26
2022-09-28T01:06:24.401Z,24.16
2022-09-28T01:07:24.403Z,24.06
2022-09-28T01:08:24.402Z,24.16
2022-09-28T01:09:24.403Z,24.07
2022-09-28T01:10:24.425Z,24.06
2022-09-28T01:11:24.407Z,24.06
2022-09-28T01:12:24.407Z,23.96
2022-09-28T01:13:24.404Z,23.96
2022-09-28T01:14:24.401Z,23.87
2022-09-28T01:15:24.403Z,23.87
2022-09-28T01:16:24.496Z,24.16
2022-09-28T01:17:24.408Z,23.96
2022-09-28T01:18:24.401Z,24.16
2022-09-28T01:19:24.403Z,24.26
2022-09-28T01:20:24.402Z,24.16
2022-09-28T01:21:24.410Z,24.16
2022-09-28T01:22:24.403Z,24.26
2022-09-28T01:23:24.402Z,24.16
2022-09-28T01:24:24.404Z,23.68
2022-09-28T01:25:24.404Z,23.77
2022-09-28T01:26:24.424Z,23.68
2022-09-28T01:27:24.404Z,23.87
2022-09-28T01:28:24.402Z,23.87
2022-09-28T01:29:24.404Z,23.96
2022-09-28T01:30:24.401Z,23.87
2022-09-28T01:31:24.416Z,23.87
2022-09-28T01:32:24.402Z,23.87
2022-09-28T01:33:24.407Z,23.96
2022-09-28T01:34:24.403Z,23.96
2022-09-28T01:35:24.403Z,24.06
2022-09-28T01:36:24.404Z,23.87
2022-09-28T01:37:24.403Z,23.87
2022-09-28T01:38:24.403Z,23.87
2022-09-28T01:39:24.402Z,24.06
2022-09-28T01:40:24.440Z,23.87
2022-09-28T01:41:24.404Z,23.87
2022-09-28T01:42:24.425Z,24.06
2022-09-28T01:43:24.406Z,24.06
2022-09-28T01:44:24.402Z,23.87
2022-09-28T01:45:24.404Z,23.96
2022-09-28T01:46:24.402Z,23.87
2022-09-28T01:47:24.403Z,24.06
2022-09-28T01:48:24.402Z,23.87
2022-09-28T01:49:24.406Z,23.87
2022-09-28T01:50:24.401Z,23.87
2022-09-28T01:51:24.403Z,23.87
2022-09-28T01:52:24.404Z,23.96
2022-09-28T01:53:24.404Z,23.77
2022-09-28T01:54:24.402Z,23.58
2022-09-28T01:55:24.403Z,23.68
2022-09-28T01:56:24.402Z,23.77
2022-09-28T01:57:24.405Z,23.58
2022-09-28T01:58:24.425Z,23.68
2022-09-28T01:59:24.408Z,23.48
2022-09-28T02:00:24.402Z,23.48
2022-09-28T02:01:24.405Z,23.48
2022-09-28T02:02:24.505Z,23.87
2022-09-28T02:03:24.403Z,23.87
2022-09-28T02:04:24.402Z,23.68
2022-09-28T02:05:24.406Z,23.38
2022-09-28T02:06:24.403Z,23.68
2022-09-28T02:07:24.406Z,23.77
2022-09-28T02:08:24.403Z,23.58
2022-09-28T02:09:24.404Z,23.87
2022-09-28T02:10:24.403Z,23.77
2022-09-28T02:11:24.404Z,23.77
2022-09-28T02:12:24.402Z,23.58
2022-09-28T02:13:24.405Z,23.68
2022-09-28T02:14:24.425Z,23.68
2022-09-28T02:15:24.403Z,23.58
2022-09-28T02:16:24.449Z,23.58
2022-09-28T02:17:24.404Z,23.58
2022-09-28T02:18:24.402Z,23.58
2022-09-28T02:19:24.404Z,23.87
2022-09-28T02:20:24.406Z,23.58
2022-09-28T02:21:24.404Z,23.58
2022-09-28T02:22:24.404Z,23.58
2022-09-28T02:23:24.404Z,23.68
2022-09-28T02:24:24.402Z,23.58
2022-09-28T02:25:24.405Z,23.87
2022-09-28T02:26:24.404Z,23.58
2022-09-28T02:27:24.403Z,23.58
2022-09-28T02:28:24.402Z,23.58
2022-09-28T02:29:24.404Z,23.58
2022-09-28T02:30:24.424Z,23.68
2022-09-28T02:31:24.468Z,23.68
2022-09-28T02:32:24.402Z,23.58
2022-09-28T02:33:24.406Z,23.58
2022-09-28T02:34:24.403Z,23.58
2022-09-28T02:35:24.407Z,23.58
2022-09-28T02:36:24.403Z,23.58
2022-09-28T02:37:24.403Z,23.77
2022-09-28T02:38:24.403Z,23.48
2022-09-28T02:39:24.403Z,23.58
2022-09-28T02:40:24.445Z,23.58
2022-09-28T02:41:24.403Z,23.77
2022-09-28T02:42:24.402Z,23.87
2022-09-28T02:43:24.409Z,23.48
2022-09-28T02:44:24.402Z,23.58
2022-09-28T02:45:24.564Z,23.87
2022-09-28T02:46:24.427Z,23.68
2022-09-28T02:47:24.404Z,23.58
2022-09-28T02:48:41.517Z,23.58
2022-09-28T02:49:24.496Z,23.58
2022-09-28T02:50:24.402Z,23.68
2022-09-28T02:51:24.403Z,23.58
2022-09-28T02:52:24.407Z,23.58
2022-09-28T02:53:24.403Z,23.48
2022-09-28T02:54:24.401Z,23.68
2022-09-28T02:55:24.404Z,23.58
2022-09-28T02:56:24.404Z,23.58
2022-09-28T02:57:24.404Z,23.68
2022-09-28T02:58:24.403Z,24.06
2022-09-28T02:59:24.404Z,23.58
2022-09-28T03:00:24.403Z,23.48
2022-09-28T03:01:24.474Z,23.87
2022-09-28T03:02:24.454Z,23.68
2022-09-28T03:03:24.404Z,23.58
2022-09-28T03:04:24.403Z,23.77
2022-09-28T03:05:24.405Z,23.87
2022-09-28T03:06:24.406Z,23.68
2022-09-28T03:07:24.403Z,24.06
2022-09-28T03:08:24.403Z,23.87
2022-09-28T03:09:24.404Z,23.96
2022-09-28T03:10:24.403Z,23.77
2022-09-28T03:11:24.404Z,23.77
2022-09-28T03:12:24.405Z,23.96
2022-09-28T03:13:24.405Z,23.96
2022-09-28T03:14:24.403Z,23.68
2022-09-28T03:15:24.403Z,23.77
2022-09-28T03:16:24.443Z,23.48
2022-09-28T03:17:24.404Z,23.58
2022-09-28T03:18:24.423Z,23.87
2022-09-28T03:19:24.405Z,23.77
2022-09-28T03:20:24.403Z,23.77
2022-09-28T03:21:24.404Z,23.96
2022-09-28T03:22:24.414Z,23.87
2022-09-28T03:23:25.409Z,23.87
2022-09-28T03:24:24.403Z,23.87
2022-09-28T03:25:24.404Z,23.87
2022-09-28T03:26:24.402Z,23.96
2022-09-28T03:27:24.403Z,24.06
2022-09-28T03:28:24.404Z,24.06
2022-09-28T03:29:24.406Z,24.06
2022-09-28T03:30:24.402Z,23.87
2022-09-28T03:31:24.468Z,24.06
2022-09-28T03:32:24.403Z,23.87
2022-09-28T03:33:24.409Z,23.87
2022-09-28T03:34:24.428Z,23.96
2022-09-28T03:35:24.405Z,23.87
2022-09-28T03:36:24.403Z,23.87
2022-09-28T03:37:24.425Z,23.87
2022-09-28T03:38:24.403Z,23.77
2022-09-28T03:39:24.404Z,23.77
2022-09-28T03:40:24.450Z,23.87
2022-09-28T03:41:24.407Z,23.87
2022-09-28T03:42:24.403Z,23.97
2022-09-28T03:43:24.408Z,23.87
2022-09-28T03:44:24.404Z,23.87
2022-09-28T03:45:24.577Z,23.87
2022-09-28T03:46:24.402Z,23.96
2022-09-28T03:47:24.404Z,23.87
2022-09-28T03:48:27.634Z,23.68
2022-09-28T03:49:24.405Z,24.26
2022-09-28T03:50:24.426Z,24.16
2022-09-28T03:51:24.405Z,23.77
2022-09-28T03:52:24.403Z,24.06
2022-09-28T03:53:24.462Z,24.06
2022-09-28T03:54:24.403Z,24.26
2022-09-28T03:55:24.405Z,24.17
2022-09-28T03:56:24.411Z,24.26
2022-09-28T03:57:24.404Z,24.26
2022-09-28T03:58:24.403Z,24.26
2022-09-28T03:59:24.406Z,23.58
2022-09-28T04:00:24.404Z,24.26
2022-09-28T04:01:24.443Z,24.26
2022-09-28T04:02:24.534Z,23.87
2022-09-28T04:03:24.404Z,23.96
2022-09-28T04:04:24.404Z,24.06
2022-09-28T04:05:24.405Z,24.06
2022-09-28T04:06:24.430Z,24.16
2022-09-28T04:07:27.890Z,24.06
2022-09-28T04:08:24.405Z,24.16
2022-09-28T04:09:24.411Z,24.06
2022-09-28T04:10:24.404Z,24.06
2022-09-28T04:11:24.405Z,24.06
2022-09-28T04:12:24.406Z,24.06
2022-09-28T04:13:24.406Z,24.06
2022-09-28T04:14:24.412Z,24.06
2022-09-28T04:15:24.406Z,23.96
2022-09-28T04:16:24.485Z,24.26
2022-09-28T04:17:24.413Z,24.16
2022-09-28T04:18:24.406Z,23.96
2022-09-28T04:19:24.405Z,23.96
2022-09-28T04:20:24.405Z,24.37
2022-09-28T04:21:24.409Z,24.06
2022-09-28T04:22:24.428Z,24.35
2022-09-28T04:23:24.406Z,24.17
2022-09-28T04:24:24.406Z,23.96
2022-09-28T04:25:24.409Z,24.17
2022-09-28T04:26:24.406Z,24.16
2022-09-28T04:27:24.406Z,23.96
2022-09-28T04:28:24.408Z,23.96
2022-09-28T04:29:24.407Z,24.26
2022-09-28T04:30:24.404Z,24.35
2022-09-28T04:31:24.452Z,23.96
2022-09-28T04:32:24.412Z,24.16
2022-09-28T04:33:24.408Z,24.16
2022-09-28T04:34:24.405Z,24.06
2022-09-28T04:35:24.404Z,23.87
2022-09-28T04:36:24.408Z,24.45
2022-09-28T04:37:24.404Z,24.45
2022-09-28T04:38:41.843Z,24.35
2022-09-28T04:39:24.405Z,24.26
2022-09-28T04:40:24.468Z,24.35
2022-09-28T04:41:24.407Z,24.35
2022-09-28T04:42:24.407Z,24.06
2022-09-28T04:43:24.406Z,24.16
2022-09-28T04:44:24.407Z,24.35
2022-09-28T04:45:24.407Z,24.26
2022-09-28T04:46:24.407Z,24.16
2022-09-28T04:47:24.406Z,24.45
2022-09-28T04:48:24.407Z,24.45
2022-09-28T04:49:24.411Z,24.35
2022-09-28T04:50:24.406Z,24.55
2022-09-28T04:51:24.405Z,24.65
2022-09-28T04:52:24.414Z,24.26
2022-09-28T04:53:24.407Z,24.26
2022-09-28T04:54:24.434Z,24.55
2022-09-28T04:55:24.406Z,24.55
2022-09-28T04:56:24.407Z,24.45
2022-09-28T04:57:24.407Z,24.45
2022-09-28T04:58:24.408Z,24.74
2022-09-28T04:59:24.406Z,24.74
2022-09-28T05:00:24.408Z,24.55
2022-09-28T05:01:24.472Z,24.55
2022-09-28T05:02:24.447Z,24.55
2022-09-28T05:03:24.418Z,24.55
2022-09-28T05:04:26.214Z,24.55
2022-09-28T05:05:24.407Z,24.65
2022-09-28T05:06:24.557Z,24.74
2022-09-28T05:07:24.407Z,24.74
2022-09-28T05:08:24.408Z,24.55
2022-09-28T05:09:24.407Z,24.55
2022-09-28T05:10:24.430Z,24.74
2022-09-28T05:11:24.406Z,24.65
2022-09-28T05:12:24.412Z,24.55
2022-09-28T05:13:24.408Z,24.45
2022-09-28T05:14:24.408Z,24.55
2022-09-28T05:15:24.408Z,24.55
2022-09-28T05:16:24.461Z,24.65
2022-09-28T05:17:24.407Z,24.65
2022-09-28T05:18:24.407Z,24.56
2022-09-28T05:19:24.406Z,24.55
2022-09-28T05:20:24.408Z,24.55
2022-09-28T05:21:24.408Z,24.55
2022-09-28T05:22:24.407Z,24.45
2022-09-28T05:23:24.406Z,24.55
2022-09-28T05:24:24.408Z,24.46
2022-09-28T05:25:24.413Z,24.26
2022-09-28T05:26:24.430Z,24.46
2022-09-28T05:27:24.409Z,24.35
2022-09-28T05:28:24.409Z,24.27
2022-09-28T05:29:24.409Z,24.45
2022-09-28T05:30:24.408Z,24.35
2022-09-28T05:31:24.436Z,24.16
2022-09-28T05:32:24.409Z,24.16
2022-09-28T05:33:24.408Z,24.35
2022-09-28T05:34:24.414Z,24.35
2022-09-28T05:35:24.408Z,24.45
2022-09-28T05:36:24.409Z,24.35
2022-09-28T05:37:24.409Z,24.65
2022-09-28T05:38:24.408Z,24.74
2022-09-28T05:39:24.407Z,24.74
2022-09-28T05:40:24.438Z,24.35
2022-09-28T05:41:24.408Z,24.84
2022-09-28T05:42:24.433Z,24.74
2022-09-28T05:43:24.408Z,24.84
2022-09-28T05:44:24.409Z,24.35
2022-09-28T05:45:24.408Z,24.66
2022-09-28T05:46:24.472Z,24.65
2022-09-28T05:47:24.408Z,24.74
2022-09-28T05:48:24.409Z,24.65
2022-09-28T05:49:24.408Z,24.65
2022-09-28T05:50:24.409Z,24.74
2022-09-28T05:51:24.408Z,24.74
2022-09-28T05:52:24.409Z,24.84
2022-09-28T05:53:24.409Z,24.74
2022-09-28T05:54:24.409Z,24.74
2022-09-28T05:55:24.478Z,24.84
2022-09-28T05:56:24.410Z,24.84
2022-09-28T05:57:24.409Z,24.65
2022-09-28T05:58:24.431Z,24.84
2022-09-28T05:59:24.409Z,24.84
2022-09-28T06:00:24.412Z,24.74
2022-09-28T06:01:24.473Z,24.65
2022-09-28T06:02:24.474Z,24.84
2022-09-28T06:03:24.408Z,24.84
2022-09-28T06:04:24.410Z,24.74
2022-09-28T06:05:24.410Z,24.74
2022-09-28T06:06:24.461Z,24.93
2022-09-28T06:07:24.409Z,24.74
2022-09-28T06:08:24.410Z,24.74
2022-09-28T06:09:26.031Z,24.74
2022-09-28T06:10:24.410Z,24.84
2022-09-28T06:11:24.409Z,24.84
2022-09-28T06:12:24.411Z,24.84
2022-09-28T06:13:24.411Z,25.03
2022-09-28T06:14:24.432Z,24.93
2022-09-28T06:15:24.410Z,24.84
2022-09-28T06:16:24.473Z,25.03
2022-09-28T06:17:24.413Z,25.03
2022-09-28T06:18:24.410Z,25.03
2022-09-28T06:19:24.413Z,25.03
2022-09-28T06:20:24.410Z,24.93
2022-09-28T06:21:24.411Z,25.03
2022-09-28T06:22:24.412Z,25.14
2022-09-28T06:23:24.410Z,25.03
2022-09-28T06:24:24.411Z,25.03
2022-09-28T06:25:24.412Z,24.74
2022-09-28T06:26:24.412Z,24.93
2022-09-28T06:27:24.411Z,24.93
2022-09-28T06:28:24.411Z,24.93
2022-09-28T06:29:24.412Z,25.13
2022-09-28T06:30:24.498Z,25.03
2022-09-28T06:31:24.452Z,25.14
2022-09-28T06:32:24.412Z,25.03
2022-09-28T06:33:24.412Z,25.03
2022-09-28T06:34:24.411Z,25.23
2022-09-28T06:35:24.412Z,25.13
2022-09-28T06:36:24.411Z,25.03
2022-09-28T06:37:24.412Z,25.13
2022-09-28T06:38:24.413Z,25.03
2022-09-28T06:39:24.414Z,25.13
2022-09-28T06:40:24.445Z,25.13
2022-09-28T06:41:24.413Z,25.03
2022-09-28T06:42:24.436Z,25.13
2022-09-28T06:43:24.412Z,25.13
2022-09-28T06:44:24.412Z,25.23
2022-09-28T06:45:24.416Z,25.23
2022-09-28T06:46:24.481Z,25.23
2022-09-28T06:47:24.411Z,25.32
2022-09-28T06:48:24.413Z,25.32
2022-09-28T06:49:24.414Z,25.32
2022-09-28T06:50:24.412Z,25.32
2022-09-28T06:51:24.412Z,25.32
2022-09-28T06:52:24.412Z,25.32
2022-09-28T06:53:24.417Z,25.42
2022-09-28T06:54:24.412Z,25.23
2022-09-28T06:55:24.411Z,25.32
2022-09-28T06:56:25.773Z,25.52
2022-09-28T06:57:24.412Z,25.81
2022-09-28T06:58:24.413Z,25.90
2022-09-28T06:59:24.412Z,25.90
2022-09-28T07:00:24.412Z,25.81
2022-09-28T07:01:24.483Z,25.90
2022-09-28T07:02:24.478Z,25.81
2022-09-28T07:03:24.414Z,25.90
2022-09-28T07:04:24.415Z,25.81
2022-09-28T07:05:24.412Z,25.81
2022-09-28T07:06:24.416Z,25.90
2022-09-28T07:07:24.413Z,25.90
2022-09-28T07:08:24.414Z,25.81
2022-09-28T07:09:32.445Z,25.71
2022-09-28T07:10:24.413Z,25.71
2022-09-28T07:11:24.412Z,25.71
2022-09-28T07:12:24.413Z,25.63
2022-09-28T07:13:46.420Z,25.71
2022-09-28T07:14:42.416Z,25.71
2022-09-28T07:15:24.417Z,25.71
2022-09-28T07:16:29.191Z,25.62
2022-09-28T07:17:24.475Z,25.62
2022-09-28T07:18:24.508Z,25.62
2022-09-28T07:19:24.412Z,25.52
2022-09-28T07:20:24.415Z,25.71
2022-09-28T07:21:29.756Z,25.71
2022-09-28T07:22:39.736Z,25.62
2022-09-28T07:23:24.412Z,25.62
2022-09-28T07:24:24.414Z,25.71
2022-09-28T07:25:24.415Z,25.62
2022-09-28T07:26:24.899Z,25.62
2022-09-28T07:27:28.746Z,25.71
2022-09-28T07:28:24.415Z,25.62
2022-09-28T07:29:24.413Z,25.62
2022-09-28T07:30:24.476Z,25.62
2022-09-28T07:31:24.478Z,25.62
2022-09-28T07:32:24.463Z,25.62
2022-09-28T07:33:24.414Z,25.71
2022-09-28T07:34:24.436Z,25.71
2022-09-28T07:35:24.414Z,25.62
2022-09-28T07:36:24.464Z,25.62
2022-09-28T07:37:24.413Z,25.52
2022-09-28T07:38:24.416Z,25.52
2022-09-28T07:39:24.412Z,25.62
2022-09-28T07:40:24.483Z,25.62
2022-09-28T07:41:24.415Z,25.62
2022-09-28T07:42:24.414Z,25.62
2022-09-28T07:43:24.418Z,26.00
2022-09-28T07:44:24.415Z,25.90
2022-09-28T07:45:24.414Z,25.81
2022-09-28T07:46:24.462Z,26.00
2022-09-28T07:47:24.414Z,25.81
2022-09-28T07:48:24.416Z,25.81
2022-09-28T07:49:24.414Z,25.81
2022-09-28T07:50:24.482Z,25.81
2022-09-28T07:51:24.413Z,25.90
2022-09-28T07:52:24.414Z,25.90
2022-09-28T07:53:24.414Z,25.81
2022-09-28T07:54:24.413Z,25.81
2022-09-28T07:55:24.419Z,25.90
2022-09-28T07:56:24.416Z,26.00
2022-09-28T07:57:24.415Z,25.90
2022-09-28T07:58:24.414Z,26.00
2022-09-28T07:59:24.415Z,25.90
2022-09-28T08:00:24.467Z,26.00
2022-09-28T08:01:24.482Z,25.90
2022-09-28T08:02:24.537Z,26.10
2022-09-28T08:03:24.421Z,25.81
2022-09-28T08:04:24.415Z,26.00
2022-09-28T08:05:24.415Z,25.90
2022-09-28T08:06:24.440Z,25.90
2022-09-28T08:07:24.452Z,25.90
2022-09-28T08:08:24.418Z,26.00
2022-09-28T08:09:24.414Z,25.81
2022-09-28T08:10:24.433Z,26.39
2022-09-28T08:11:24.415Z,26.20
2022-09-28T08:12:24.416Z,26.20
2022-09-28T08:13:27.107Z,26.20
2022-09-28T08:14:24.416Z,25.90
2022-09-28T08:15:24.415Z,26.20
2022-09-28T08:16:24.564Z,25.90
2022-09-28T08:17:24.416Z,26.10
2022-09-28T08:18:24.415Z,26.20
2022-09-28T08:19:24.414Z,26.39
2022-09-28T08:20:24.416Z,25.90
2022-09-28T08:21:24.417Z,26.10
2022-09-28T08:22:24.461Z,26.00
2022-09-28T08:23:24.415Z,26.10
2022-09-28T08:24:24.417Z,26.20
2022-09-28T08:25:24.415Z,26.20
2022-09-28T08:26:24.415Z,26.20
2022-09-28T08:27:24.414Z,26.10
2022-09-28T08:28:24.416Z,26.10
2022-09-28T08:29:24.416Z,26.10
2022-09-28T08:30:24.518Z,26.00
2022-09-28T08:31:24.414Z,26.10
2022-09-28T08:32:24.416Z,26.00
2022-09-28T08:33:24.415Z,26.00
2022-09-28T08:34:24.415Z,26.10
2022-09-28T08:35:24.415Z,26.20
2022-09-28T08:36:24.415Z,26.00
2022-09-28T08:37:24.415Z,26.10
2022-09-28T08:38:24.439Z,26.00
2022-09-28T08:39:24.416Z,26.10
2022-09-28T08:40:24.498Z,26.10
2022-09-28T08:41:24.415Z,26.00
2022-09-28T08:42:24.416Z,26.10
2022-09-28T08:43:24.416Z,26.10
2022-09-28T08:44:24.564Z,26.10
2022-09-28T08:45:24.415Z,26.20
2022-09-28T08:46:26.997Z,26.00
2022-09-28T08:47:24.415Z,26.10
2022-09-28T08:48:24.415Z,26.10
2022-09-28T08:49:25.820Z,26.20
2022-09-28T08:50:24.418Z,26.20
2022-09-28T08:51:24.415Z,26.20
2022-09-28T08:52:24.415Z,26.39
2022-09-28T08:53:24.418Z,26.39
2022-09-28T08:54:24.438Z,26.39
2022-09-28T08:55:24.425Z,26.39
2022-09-28T08:56:24.419Z,26.20
2022-09-28T08:57:24.417Z,26.10
2022-09-28T08:58:24.415Z,26.29
2022-09-28T08:59:24.416Z,26.29
2022-09-28T09:00:24.417Z,26.29
2022-09-28T09:01:24.505Z,26.39
2022-09-28T09:02:24.467Z,26.20
2022-09-28T09:03:24.417Z,26.29
2022-09-28T09:04:24.416Z,26.49
2022-09-28T09:05:24.418Z,26.59
2022-09-28T09:06:24.467Z,26.39
2022-09-28T09:07:24.416Z,26.39
2022-09-28T09:08:24.416Z,26.49
2022-09-28T09:09:24.418Z,26.49
2022-09-28T09:10:24.438Z,26.29
2022-09-28T09:11:24.418Z,26.29
2022-09-28T09:12:24.415Z,26.39
2022-09-28T09:13:24.420Z,26.29
2022-09-28T09:14:24.417Z,26.20
2022-09-28T09:15:24.418Z,26.39
2022-09-28T09:16:24.480Z,26.59
2022-09-28T09:17:24.420Z,26.59
2022-09-28T09:18:24.439Z,26.78
2022-09-28T09:19:24.417Z,26.29
2022-09-28T09:20:24.418Z,26.59
2022-09-28T09:21:24.417Z,26.68
2022-09-28T09:22:24.415Z,26.59
2022-09-28T09:23:24.417Z,26.68
2022-09-28T09:24:24.418Z,26.68
2022-09-28T09:25:24.417Z,26.68
2022-09-28T09:26:26.250Z,26.59
2022-09-28T09:27:24.419Z,26.68
2022-09-28T09:28:24.417Z,26.68
2022-09-28T09:29:24.418Z,26.68
2022-09-28T09:30:25.099Z,26.59
2022-09-28T09:31:24.468Z,26.68
2022-09-28T09:32:24.417Z,26.68
2022-09-28T09:33:24.417Z,26.68
2022-09-28T09:34:24.416Z,26.59
2022-09-28T09:35:28.640Z,26.68
2022-09-28T09:36:24.423Z,26.78
2022-09-28T09:37:24.418Z,26.68
2022-09-28T09:38:24.417Z,26.87
2022-09-28T09:39:24.417Z,26.68
2022-09-28T09:40:24.462Z,26.68
2022-09-28T09:41:24.419Z,26.68
2022-09-28T09:42:24.438Z,26.49
2022-09-28T09:43:27.969Z,26.68
2022-09-28T09:44:24.420Z,26.97
2022-09-28T09:45:24.418Z,26.59
2022-09-28T09:46:24.468Z,26.68
2022-09-28T09:47:24.417Z,26.68
2022-09-28T09:48:24.420Z,26.59
2022-09-28T09:49:24.418Z,26.78
2022-09-28T09:50:24.417Z,26.97
2022-09-28T09:51:24.418Z,26.78
2022-09-28T09:52:24.509Z,26.78
2022-09-28T09:53:24.423Z,26.97
2022-09-28T09:54:24.421Z,26.87
2022-09-28T09:55:29.654Z,26.97
2022-09-28T09:56:24.417Z,27.17
2022-09-28T09:57:24.420Z,27.07
2022-09-28T09:58:24.454Z,27.07
2022-09-28T09:59:24.421Z,27.17
2022-09-28T10:00:24.418Z,27.17
2022-09-28T10:01:24.494Z,27.17
2022-09-28T10:02:24.515Z,27.17
2022-09-28T10:03:24.418Z,27.07
2022-09-28T10:04:24.417Z,27.07
2022-09-28T10:05:24.418Z,27.26
2022-09-28T10:06:24.417Z,26.97
2022-09-28T10:07:24.419Z,27.26
2022-09-28T10:08:24.418Z,27.26
2022-09-28T10:09:24.419Z,27.07
2022-09-28T10:10:24.421Z,27.26
2022-09-28T10:11:24.418Z,27.26
2022-09-28T10:12:24.418Z,27.17
2022-09-28T10:13:24.423Z,27.17
2022-09-28T10:14:24.438Z,27.07
2022-09-28T10:15:24.425Z,27.17
2022-09-28T10:16:24.504Z,27.26
2022-09-28T10:17:24.420Z,27.17
2022-09-28T10:18:24.420Z,27.17
2022-09-28T10:19:24.421Z,27.07
2022-09-28T10:20:24.420Z,26.87
2022-09-28T10:21:24.420Z,27.07
2022-09-28T10:22:24.419Z,26.97
2022-09-28T10:23:24.423Z,26.97
2022-09-28T10:24:24.418Z,27.26
2022-09-28T10:25:24.421Z,27.07
2022-09-28T10:26:25.369Z,27.36
2022-09-28T10:27:24.419Z,27.26
2022-09-28T10:28:24.420Z,27.26
2022-09-28T10:29:24.420Z,27.26
2022-09-28T10:30:24.440Z,27.17
2022-09-28T10:31:24.419Z,27.26
2022-09-28T10:32:24.419Z,27.26
2022-09-28T10:33:24.420Z,27.17
2022-09-28T10:34:24.421Z,27.07
2022-09-28T10:35:24.420Z,27.36
2022-09-28T10:36:24.419Z,27.26
2022-09-28T10:37:24.421Z,27.36
2022-09-28T10:38:24.420Z,27.36
2022-09-28T10:39:24.419Z,27.36
2022-09-28T10:40:24.481Z,27.36
2022-09-28T10:41:24.421Z,27.26
2022-09-28T10:42:24.418Z,27.36
2022-09-28T10:43:24.419Z,27.36
2022-09-28T10:44:24.419Z,27.26
2022-09-28T10:45:24.421Z,27.26
2022-09-28T10:46:24.541Z,27.36
2022-09-28T10:47:24.420Z,27.36
2022-09-28T10:48:24.419Z,27.36
2022-09-28T10:49:24.420Z,27.36
2022-09-28T10:50:24.426Z,27.36
2022-09-28T10:51:24.422Z,27.26
2022-09-28T10:52:24.419Z,27.36
2022-09-28T10:53:24.421Z,27.26
2022-09-28T10:54:24.418Z,27.36
2022-09-28T10:55:24.422Z,27.36
2022-09-28T10:56:24.421Z,27.46
2022-09-28T10:57:24.422Z,27.36
2022-09-28T10:58:24.419Z,27.46
2022-09-28T10:59:24.422Z,27.66
2022-09-28T11:00:24.421Z,27.26
2022-09-28T11:01:24.527Z,27.66
2022-09-28T11:02:24.495Z,27.56
2022-09-28T11:03:24.424Z,27.46
2022-09-28T11:04:24.419Z,27.36
2022-09-28T11:05:24.422Z,27.36
2022-09-28T11:06:24.441Z,27.36
2022-09-28T11:07:24.420Z,27.36
2022-09-28T11:08:24.420Z,27.56
2022-09-28T11:09:28.402Z,27.36
2022-09-28T11:10:24.419Z,27.46
2022-09-28T11:11:24.422Z,27.36
2022-09-28T11:12:24.421Z,27.46
2022-09-28T11:13:24.422Z,27.46
2022-09-28T11:14:24.419Z,27.46
2022-09-28T11:15:24.423Z,27.36
2022-09-28T11:16:24.503Z,27.36
2022-09-28T11:17:24.422Z,27.46
2022-09-28T11:18:24.443Z,27.56
2022-09-28T11:19:24.421Z,27.56
2022-09-28T11:20:27.306Z,27.56
2022-09-28T11:21:24.423Z,27.56
2022-09-28T11:22:24.421Z,27.56
2022-09-28T11:23:24.423Z,27.56
2022-09-28T11:24:24.706Z,27.46
2022-09-28T11:25:24.424Z,27.56
2022-09-28T11:26:24.420Z,27.56
2022-09-28T11:27:24.424Z,27.56
2022-09-28T11:28:24.422Z,27.56
2022-09-28T11:29:24.434Z,27.46
2022-09-28T11:30:24.508Z,27.56
2022-09-28T11:31:24.426Z,27.56
2022-09-28T11:32:24.420Z,27.56
2022-09-28T11:33:24.422Z,27.46
2022-09-28T11:34:31.448Z,27.46
2022-09-28T11:35:24.421Z,27.46
2022-09-28T11:36:24.421Z,27.46
2022-09-28T11:37:24.422Z,27.46
2022-09-28T11:38:24.420Z,27.56
2022-09-28T11:39:24.424Z,27.56
2022-09-28T11:40:24.512Z,27.56
2022-09-28T11:41:24.423Z,27.36
2022-09-28T11:42:24.423Z,27.56
2022-09-28T11:43:24.422Z,27.56
2022-09-28T11:44:27.027Z,27.36
2022-09-28T11:45:24.423Z,27.56
2022-09-28T11:46:24.519Z,27.56
2022-09-28T11:47:24.422Z,27.56
2022-09-28T11:48:24.422Z,27.57
2022-09-28T11:49:24.423Z,27.46
2022-09-28T11:50:24.870Z,27.66
2022-09-28T11:51:24.422Z,27.26
2022-09-28T11:52:24.423Z,27.56
2022-09-28T11:53:24.423Z,27.46
2022-09-28T11:54:24.423Z,27.26
2022-09-28T11:55:24.424Z,27.26
2022-09-28T11:56:24.423Z,27.46
2022-09-28T11:57:24.423Z,27.84
2022-09-28T11:58:24.425Z,27.36
2022-09-28T11:59:24.423Z,27.36
2022-09-28T12:00:24.424Z,27.75
2022-09-28T12:01:24.425Z,27.36
2022-09-28T12:02:24.548Z,27.46
2022-09-28T12:03:24.537Z,27.84
2022-09-28T12:04:24.422Z,27.75
2022-09-28T12:05:24.424Z,27.46
2022-09-28T12:06:24.443Z,27.36
2022-09-28T12:07:24.423Z,27.66
2022-09-28T12:08:24.422Z,27.75
2022-09-28T12:09:24.424Z,27.75
2022-09-28T12:10:24.427Z,27.36
2022-09-28T12:11:24.428Z,27.36
2022-09-28T12:12:24.424Z,27.66
2022-09-28T12:13:24.424Z,27.75
2022-09-28T12:14:24.423Z,27.56
2022-09-28T12:15:24.423Z,27.75
2022-09-28T12:16:53.181Z,27.46
2022-09-28T12:17:24.494Z,27.75
2022-09-28T12:18:24.422Z,27.66
2022-09-28T12:19:24.428Z,27.56
2022-09-28T12:20:24.423Z,27.75
2022-09-28T12:21:24.427Z,27.66
2022-09-28T12:22:24.444Z,27.46
2022-09-28T12:23:24.425Z,27.75
2022-09-28T12:24:24.425Z,27.66
2022-09-28T12:25:24.426Z,27.66
2022-09-28T12:26:24.424Z,27.75
2022-09-28T12:27:24.426Z,27.56
2022-09-28T12:28:24.424Z,27.56
2022-09-28T12:29:24.426Z,27.56
2022-09-28T12:30:24.424Z,27.66
2022-09-28T12:31:24.475Z,27.56
2022-09-28T12:32:24.426Z,27.46
2022-09-28T12:33:24.426Z,27.75
2022-09-28T12:34:24.431Z,27.56
2022-09-28T12:35:24.427Z,27.46
2022-09-28T12:36:24.424Z,27.46
2022-09-28T12:37:24.428Z,27.66
2022-09-28T12:38:24.452Z,27.56
2022-09-28T12:39:40.613Z,27.56
2022-09-28T12:40:24.505Z,27.75
2022-09-28T12:41:24.427Z,27.66
2022-09-28T12:42:24.427Z,27.66
2022-09-28T12:43:24.426Z,27.66
2022-09-28T12:44:24.424Z,27.66
2022-09-28T12:45:24.426Z,27.66
2022-09-28T12:46:24.481Z,27.66
2022-09-28T12:47:24.426Z,27.56
2022-09-28T12:48:24.426Z,27.66
2022-09-28T12:50:13.880Z,27.56
2022-09-28T12:50:43.325Z,27.56
2022-09-28T12:51:24.427Z,27.46
2022-09-28T12:52:24.430Z,27.66